createdAt,value
2024-01-18T00:00:36.268Z,12.50
2024-01-18T00:03:03.842Z,13.02
2024-01-18T00:05:31.085Z,10.95
2024-01-18T00:07:58.183Z,14.33
2024-01-18T00:10:28.719Z,10.30
2024-01-18T00:12:56.167Z,11.27
2024-01-18T00:15:23.720Z,11.57
2024-01-18T00:17:51.226Z,10.48
2024-01-18T00:20:18.569Z,9.47
2024-01-18T00:22:45.659Z,10.20
2024-01-18T00:25:20.715Z,12.60
2024-01-18T00:27:47.816Z,11.68
2024-01-18T00:30:16.696Z,8.43
2024-01-18T00:32:43.925Z,8.47
2024-01-18T00:35:11.432Z,7.72
2024-01-18T00:37:38.656Z,9.68
2024-01-18T00:40:08.023Z,10.63
2024-01-18T00:42:35.286Z,11.32
2024-01-18T00:45:02.523Z,9.87
2024-01-18T00:47:29.903Z,13.55
2024-01-18T00:49:57.130Z,10.10
2024-01-18T00:52:24.203Z,11.10
2024-01-18T00:54:51.450Z,9.45
2024-01-18T00:57:18.558Z,9.07
2024-01-18T00:59:45.795Z,9.43
2024-01-18T01:02:12.901Z,13.30
2024-01-18T01:04:40.101Z,9.65
2024-01-18T01:07:07.206Z,11.02
2024-01-18T01:09:34.425Z,10.03
2024-01-18T01:12:01.710Z,11.23
2024-01-18T01:14:28.933Z,11.82
2024-01-18T01:16:56.125Z,10.80
2024-01-18T01:19:23.310Z,10.02
2024-01-18T01:21:50.407Z,10.63
2024-01-18T01:24:17.602Z,9.43
2024-01-18T01:26:44.705Z,8.10
2024-01-18T01:29:12.644Z,12.98
2024-01-18T01:31:39.890Z,9.85
2024-01-18T01:34:07.097Z,13.00
2024-01-18T01:36:34.393Z,10.45
2024-01-18T01:39:01.946Z,15.50
2024-01-18T01:41:29.228Z,14.35
2024-01-18T01:44:00.045Z,11.10
2024-01-18T01:46:27.852Z,14.57
2024-01-18T01:49:03.453Z,12.20
2024-01-18T01:51:34.154Z,15.13
2024-01-18T01:54:03.775Z,14.27
2024-01-18T01:56:32.003Z,12.65
2024-01-18T01:58:59.135Z,11.00
2024-01-18T02:01:26.387Z,14.20
2024-01-18T02:03:53.800Z,18.10
2024-01-18T02:06:21.049Z,16.45
2024-01-18T02:08:48.246Z,13.55
2024-01-18T02:11:15.884Z,13.83
2024-01-18T02:13:43.484Z,13.77
2024-01-18T02:16:10.884Z,14.02
2024-01-18T02:18:38.160Z,14.10
2024-01-18T02:21:08.870Z,16.52
2024-01-18T02:23:37.788Z,15.03
2024-01-18T02:26:05.112Z,19.17
2024-01-18T02:28:32.241Z,15.10
2024-01-18T02:30:59.389Z,14.10
2024-01-18T02:33:26.587Z,15.68
2024-01-18T02:35:53.901Z,19.47
2024-01-18T02:38:21.265Z,16.02
2024-01-18T02:40:48.642Z,14.05
2024-01-18T02:43:15.757Z,13.40
2024-01-18T02:45:43.001Z,14.27
2024-01-18T02:48:10.321Z,16.27
2024-01-18T02:50:41.538Z,19.25
2024-01-18T02:53:08.691Z,17.23
2024-01-18T02:55:35.837Z,16.92
2024-01-18T02:58:06.266Z,14.20
2024-01-18T03:00:33.612Z,12.87
2024-01-18T03:03:00.904Z,16.88
2024-01-18T03:05:28.046Z,12.38
2024-01-18T03:07:55.671Z,14.75
2024-01-18T03:10:23.226Z,15.52
2024-01-18T03:12:50.371Z,13.93
2024-01-18T03:15:17.648Z,12.65
2024-01-18T03:17:44.842Z,14.80
2024-01-18T03:20:12.025Z,11.70
2024-01-18T03:22:40.306Z,15.73
2024-01-18T03:25:07.950Z,14.27
2024-01-18T03:27:37.560Z,15.68
2024-01-18T03:30:05.280Z,13.73
2024-01-18T03:32:32.464Z,16.35
2024-01-18T03:35:00.049Z,17.10
2024-01-18T03:37:27.371Z,16.57
2024-01-18T03:39:54.479Z,19.98
2024-01-18T03:42:21.639Z,20.33
2024-01-18T03:44:48.892Z,18.02
2024-01-18T03:47:16.162Z,21.25
2024-01-18T03:49:44.647Z,18.47
2024-01-18T03:52:13.239Z,17.65
2024-01-18T03:54:40.908Z,15.98
2024-01-18T03:57:08.078Z,22.80
2024-01-18T03:59:35.509Z,22.77
2024-01-18T04:02:02.623Z,18.47
2024-01-18T04:04:29.897Z,19.20
2024-01-18T04:06:57.170Z,19.75
2024-01-18T04:09:24.422Z,19.10
2024-01-18T04:11:51.603Z,18.27
2024-01-18T04:14:19.026Z,18.83
2024-01-18T04:16:46.146Z,21.27
2024-01-18T04:19:13.420Z,22.00
2024-01-18T04:21:40.662Z,19.98
2024-01-18T04:24:07.886Z,21.65
2024-01-18T04:26:35.602Z,25.53
2024-01-18T04:29:03.503Z,21.77
2024-01-18T04:31:30.612Z,17.25
2024-01-18T04:33:57.827Z,17.80
2024-01-18T04:36:25.056Z,16.90
2024-01-18T04:38:52.826Z,19.30
2024-01-18T04:41:20.037Z,20.35
2024-01-18T04:43:47.160Z,22.90
2024-01-18T04:46:14.309Z,27.85
2024-01-18T04:48:41.873Z,19.90
2024-01-18T04:51:09.056Z,24.77
2024-01-18T04:53:36.234Z,20.27
2024-01-18T04:56:03.503Z,24.98
2024-01-18T04:58:30.650Z,23.48
2024-01-18T05:00:57.958Z,20.05
2024-01-18T05:03:26.395Z,20.60
2024-01-18T05:05:54.008Z,21.88
2024-01-18T05:08:21.780Z,20.33
2024-01-18T05:10:49.064Z,27.52
2024-01-18T05:13:16.298Z,19.50
2024-01-18T05:15:43.439Z,22.10
2024-01-18T05:18:10.692Z,22.63
2024-01-18T05:20:46.372Z,17.35
2024-01-18T05:23:13.484Z,25.33
2024-01-18T05:25:40.573Z,25.63
2024-01-18T05:28:07.868Z,19.00
2024-01-18T05:30:35.104Z,19.80
2024-01-18T05:33:02.444Z,19.95
2024-01-18T05:35:48.146Z,15.95
2024-01-18T05:38:27.624Z,13.00
2024-01-18T05:40:54.886Z,13.07
2024-01-18T05:43:22.122Z,17.15
2024-01-18T05:45:49.432Z,12.00
2024-01-18T05:48:16.657Z,10.18
2024-01-18T05:50:43.884Z,12.02
2024-01-18T05:53:10.998Z,13.30
2024-01-18T05:55:38.348Z,13.80
2024-01-18T05:58:05.477Z,14.75
2024-01-18T06:00:32.958Z,14.32
2024-01-18T06:03:00.182Z,10.85
2024-01-18T06:05:27.914Z,16.03
2024-01-18T06:07:55.057Z,11.27
2024-01-18T06:10:22.682Z,14.93
2024-01-18T06:12:49.797Z,16.90
2024-01-18T06:15:19.615Z,15.45
2024-01-18T06:17:46.773Z,11.70
2024-01-18T06:20:16.218Z,15.48
2024-01-18T06:22:43.695Z,17.50
2024-01-18T06:25:10.921Z,10.88
2024-01-18T06:27:38.026Z,17.40
2024-01-18T06:30:11.737Z,18.07
2024-01-18T06:32:39.191Z,14.18
2024-01-18T06:35:06.657Z,22.23
2024-01-18T06:37:34.256Z,20.33
2024-01-18T06:40:01.428Z,18.90
2024-01-18T06:42:28.655Z,21.40
2024-01-18T06:44:55.766Z,24.92
2024-01-18T06:47:22.926Z,19.25
2024-01-18T06:49:50.255Z,17.50
2024-01-18T06:52:17.786Z,22.55
2024-01-18T06:54:45.251Z,19.97
2024-01-18T06:57:12.562Z,17.70
2024-01-18T06:59:49.190Z,24.33
2024-01-18T07:02:16.373Z,23.63
2024-01-18T07:04:44.970Z,22.13
2024-01-18T07:07:12.181Z,18.57
2024-01-18T07:09:39.361Z,25.25
2024-01-18T07:12:07.158Z,23.02
2024-01-18T07:14:34.991Z,19.50
2024-01-18T07:17:02.866Z,26.52
2024-01-18T07:19:30.272Z,24.93
2024-01-18T07:21:57.513Z,22.08
2024-01-18T07:24:27.715Z,25.42
2024-01-18T07:26:54.824Z,25.52
2024-01-18T07:29:21.951Z,19.60
2024-01-18T07:31:49.031Z,22.07
2024-01-18T07:34:17.620Z,26.52
2024-01-18T07:36:44.986Z,33.97
2024-01-18T07:39:12.244Z,20.75
2024-01-18T07:41:39.374Z,20.20
2024-01-18T07:44:06.584Z,19.67
2024-01-18T07:46:33.884Z,28.70
2024-01-18T07:49:02.792Z,25.75
2024-01-18T07:51:30.889Z,28.30
2024-01-18T07:53:58.264Z,26.35
2024-01-18T07:56:25.389Z,27.17
2024-01-18T07:58:52.606Z,18.50
2024-01-18T08:01:20.205Z,19.42
2024-01-18T08:03:47.519Z,23.38
2024-01-18T08:06:14.890Z,23.48
2024-01-18T08:08:42.079Z,16.13
2024-01-18T08:11:13.995Z,24.90
2024-01-18T08:13:41.902Z,22.42
2024-01-18T08:16:09.939Z,23.08
2024-01-18T08:18:37.845Z,19.27
2024-01-18T08:21:07.464Z,27.87
2024-01-18T08:23:36.989Z,25.92
2024-01-18T08:26:04.174Z,22.20
2024-01-18T08:28:31.265Z,17.98
2024-01-18T08:30:59.213Z,16.05
2024-01-18T08:33:26.412Z,15.53
2024-01-18T08:35:53.507Z,14.43
2024-01-18T08:38:22.255Z,13.27
2024-01-18T08:40:49.541Z,17.88
2024-01-18T08:43:16.800Z,20.77
2024-01-18T08:45:44.128Z,14.60
2024-01-18T08:48:11.757Z,21.63
2024-01-18T08:50:39.324Z,24.65
2024-01-18T08:53:08.055Z,18.92
2024-01-18T08:55:39.385Z,18.52
2024-01-18T08:58:07.933Z,16.37
2024-01-18T09:00:35.674Z,13.48
2024-01-18T09:03:02.884Z,15.90
2024-01-18T09:05:30.855Z,17.30
2024-01-18T09:07:59.483Z,17.45
2024-01-18T09:10:27.652Z,19.90
2024-01-18T09:12:54.898Z,18.58
2024-01-18T09:15:23.324Z,27.50
2024-01-18T09:17:50.459Z,24.63
2024-01-18T09:20:17.757Z,15.82
2024-01-18T09:22:44.956Z,19.87
2024-01-18T09:25:12.170Z,22.33
2024-01-18T09:27:39.393Z,17.42
2024-01-18T09:30:09.916Z,24.67
2024-01-18T09:32:37.138Z,31.17
2024-01-18T09:35:06.919Z,18.87
2024-01-18T09:37:34.070Z,20.25
2024-01-18T09:40:01.292Z,30.52
2024-01-18T09:42:32.486Z,29.33
2024-01-18T09:45:10.381Z,26.13
2024-01-18T09:47:37.713Z,27.27
2024-01-18T09:50:05.712Z,24.70
2024-01-18T09:52:34.493Z,23.25
2024-01-18T09:55:01.770Z,23.83
2024-01-18T09:57:33.883Z,27.00
2024-01-18T10:00:05.494Z,24.40
2024-01-18T10:02:33.686Z,24.25
2024-01-18T10:05:01.836Z,22.50
2024-01-18T10:07:29.157Z,25.42
2024-01-18T10:09:57.486Z,27.45
2024-01-18T10:12:31.099Z,19.63
2024-01-18T10:14:58.387Z,23.13
2024-01-18T10:17:27.156Z,26.50
2024-01-18T10:19:57.978Z,22.65
2024-01-18T10:22:26.158Z,19.33
2024-01-18T10:24:53.565Z,20.67
2024-01-18T10:27:20.998Z,18.33
2024-01-18T10:29:48.189Z,14.38
2024-01-18T10:32:17.858Z,20.17
2024-01-18T10:34:45.136Z,16.58
2024-01-18T10:37:16.735Z,19.77
2024-01-18T10:39:44.953Z,20.33
2024-01-18T10:42:13.469Z,18.33
2024-01-18T10:44:48.508Z,18.25
2024-01-18T10:47:16.203Z,18.95
2024-01-18T10:49:46.329Z,15.83
2024-01-18T10:52:13.594Z,20.00
2024-01-18T10:54:46.996Z,21.25
2024-01-18T10:57:22.810Z,21.75
2024-01-18T10:59:50.638Z,22.67
2024-01-18T11:02:18.081Z,18.53
2024-01-18T11:04:45.709Z,22.73
2024-01-18T11:07:14.356Z,20.98
2024-01-18T11:09:41.712Z,32.25
2024-01-18T11:12:09.266Z,19.45
2024-01-18T11:14:37.228Z,21.17
2024-01-18T11:17:17.385Z,30.27
2024-01-18T11:19:48.410Z,22.77
2024-01-18T11:22:26.289Z,25.83
2024-01-18T11:25:07.117Z,20.50
2024-01-18T11:27:41.698Z,16.27
2024-01-18T11:30:11.921Z,15.60
2024-01-18T11:32:39.841Z,16.10
2024-01-18T11:35:11.445Z,14.38
2024-01-18T11:37:39.598Z,17.75
2024-01-18T11:40:11.143Z,18.10
2024-01-18T11:42:42.200Z,16.00
2024-01-18T11:45:12.204Z,24.35
2024-01-18T11:47:40.176Z,20.70
2024-01-18T11:50:10.287Z,22.05
2024-01-18T11:52:44.897Z,29.33
2024-01-18T11:55:13.013Z,27.05
2024-01-18T11:57:40.196Z,28.02
2024-01-18T12:00:07.960Z,32.67
2024-01-18T12:02:35.163Z,30.75
2024-01-18T12:05:04.767Z,28.77
2024-01-18T12:07:33.783Z,29.33
2024-01-18T12:10:02.231Z,28.95
2024-01-18T12:12:29.688Z,31.23
2024-01-18T12:15:02.552Z,32.15
2024-01-18T12:17:29.856Z,31.53
2024-01-18T12:19:57.050Z,29.17
2024-01-18T12:22:27.502Z,29.52
2024-01-18T12:24:55.173Z,37.78
2024-01-18T12:27:22.437Z,28.85
2024-01-18T12:29:49.656Z,24.53
2024-01-18T12:32:18.023Z,26.48
2024-01-18T12:34:45.913Z,33.90
2024-01-18T12:37:13.767Z,29.92
2024-01-18T12:39:41.044Z,26.92
2024-01-18T12:42:08.456Z,29.07
2024-01-18T12:44:35.694Z,40.78
2024-01-18T12:47:05.669Z,27.48
2024-01-18T12:49:34.768Z,27.45
2024-01-18T12:52:03.807Z,24.98
2024-01-18T12:54:32.969Z,22.70
2024-01-18T12:57:01.581Z,30.52
2024-01-18T12:59:31.385Z,20.45
2024-01-18T13:01:59.287Z,25.85
2024-01-18T13:04:34.625Z,25.23
2024-01-18T13:07:04.127Z,26.40
2024-01-18T13:09:34.466Z,26.65
2024-01-18T13:12:07.010Z,24.35
2024-01-18T13:14:35.282Z,23.88
2024-01-18T13:17:02.523Z,26.42
2024-01-18T13:19:30.472Z,23.27
2024-01-18T13:21:58.079Z,29.77
2024-01-18T13:24:25.485Z,22.10
2024-01-18T13:26:52.989Z,28.60
2024-01-18T13:29:20.199Z,23.15
2024-01-18T13:31:48.794Z,25.53
2024-01-18T13:34:18.311Z,26.40
2024-01-18T13:36:46.039Z,26.67
2024-01-18T13:39:13.481Z,22.13
2024-01-18T13:41:40.752Z,24.73
2024-01-18T13:44:09.126Z,30.37
2024-01-18T13:46:39.550Z,30.13
2024-01-18T13:49:06.793Z,22.45
2024-01-18T13:51:34.352Z,30.45
2024-01-18T13:54:01.916Z,24.98
2024-01-18T13:56:29.512Z,29.07
2024-01-18T13:58:56.792Z,25.85
2024-01-18T14:01:24.278Z,25.52
2024-01-18T14:03:54.114Z,26.33
2024-01-18T14:06:23.827Z,28.08
2024-01-18T14:08:51.547Z,30.00
2024-01-18T14:11:18.787Z,32.33
2024-01-18T14:13:45.939Z,28.85
2024-01-18T14:16:13.583Z,32.13
2024-01-18T14:18:42.071Z,29.40
2024-01-18T14:21:09.743Z,29.43
2024-01-18T14:23:37.109Z,23.95
2024-01-18T14:26:05.509Z,26.73
2024-01-18T14:28:33.442Z,31.98
2024-01-18T14:31:01.749Z,27.25
2024-01-18T14:33:29.318Z,32.63
2024-01-18T14:35:56.674Z,31.73
2024-01-18T14:38:23.837Z,33.10
2024-01-18T14:40:51.058Z,34.80
2024-01-18T14:43:20.815Z,33.17
2024-01-18T14:45:49.907Z,32.80
2024-01-18T14:48:18.225Z,29.83
2024-01-18T14:50:46.286Z,38.63
2024-01-18T14:53:17.510Z,29.95
2024-01-18T14:55:44.946Z,27.27
2024-01-18T14:58:12.581Z,29.10
2024-01-18T15:00:41.525Z,28.98
2024-01-18T15:03:09.266Z,29.88
2024-01-18T15:05:38.383Z,29.65
2024-01-18T15:08:07.405Z,37.33
2024-01-18T15:10:34.965Z,31.57
2024-01-18T15:13:02.310Z,25.75
2024-01-18T15:15:30.583Z,25.40
2024-01-18T15:17:58.379Z,30.08
2024-01-18T15:20:25.849Z,28.52
2024-01-18T15:22:53.205Z,27.57
2024-01-18T15:25:20.434Z,27.25
2024-01-18T15:27:47.706Z,22.92
2024-01-18T15:30:15.286Z,23.52
2024-01-18T15:32:42.524Z,26.70
2024-01-18T15:35:11.132Z,28.23
2024-01-18T15:37:38.559Z,21.38
2024-01-18T15:40:10.558Z,23.33
2024-01-18T15:42:37.945Z,23.98
2024-01-18T15:45:05.860Z,27.75
2024-01-18T15:47:40.427Z,25.93
2024-01-18T15:50:08.607Z,23.75
2024-01-18T15:52:36.483Z,26.95
2024-01-18T15:55:05.033Z,22.25
2024-01-18T15:57:32.583Z,18.60
2024-01-18T15:59:59.999Z,22.73
2024-01-18T16:02:27.152Z,22.15
2024-01-18T16:04:55.817Z,27.83
2024-01-18T16:07:23.861Z,19.48
2024-01-18T16:09:55.212Z,25.13
2024-01-18T16:12:22.408Z,23.83
2024-01-18T16:14:49.554Z,22.20
2024-01-18T16:17:16.712Z,21.48
2024-01-18T16:19:43.868Z,22.35
2024-01-18T16:22:11.094Z,25.00
2024-01-18T16:24:38.387Z,20.07
2024-01-18T16:27:05.704Z,23.58
2024-01-18T16:29:41.516Z,23.17
2024-01-18T16:32:19.620Z,18.45
2024-01-18T16:34:46.772Z,17.83
2024-01-18T16:37:13.894Z,21.60
2024-01-18T16:39:42.058Z,22.65
2024-01-18T16:42:09.196Z,15.05
2024-01-18T16:44:36.316Z,25.10
2024-01-18T16:47:03.966Z,18.90
2024-01-18T16:49:31.135Z,18.60
2024-01-18T16:51:58.375Z,17.73
2024-01-18T16:54:26.044Z,20.23
2024-01-18T16:56:53.170Z,23.95
2024-01-18T16:59:20.320Z,17.88
2024-01-18T17:01:47.430Z,21.53
2024-01-18T17:04:15.810Z,18.45
2024-01-18T17:06:45.111Z,18.67
2024-01-18T17:09:12.340Z,17.85
2024-01-18T17:11:39.531Z,23.75
2024-01-18T17:14:06.741Z,21.57
2024-01-18T17:16:34.112Z,30.40
2024-01-18T17:19:01.709Z,26.35
2024-01-18T17:21:28.868Z,29.05
2024-01-18T17:23:56.010Z,30.85
2024-01-18T17:26:23.402Z,31.13
2024-01-18T17:28:50.532Z,26.70
2024-01-18T17:31:17.792Z,26.23
2024-01-18T17:33:45.108Z,28.42
2024-01-18T17:36:12.383Z,27.25
2024-01-18T17:38:39.991Z,25.83
2024-01-18T17:41:07.264Z,26.92
2024-01-18T17:43:34.420Z,29.95
2024-01-18T17:46:04.101Z,30.10
2024-01-18T17:48:33.987Z,31.10
2024-01-18T17:51:02.804Z,30.43
2024-01-18T17:53:30.046Z,30.60
2024-01-18T17:55:59.882Z,45.58
2024-01-18T17:58:28.079Z,29.00
2024-01-18T18:00:55.151Z,32.28
2024-01-18T18:03:22.280Z,26.13
2024-01-18T18:05:49.693Z,25.20
2024-01-18T18:08:16.933Z,32.70
2024-01-18T18:10:45.088Z,28.65
2024-01-18T18:13:12.204Z,28.17
2024-01-18T18:15:45.047Z,31.63
2024-01-18T18:18:17.861Z,32.13
2024-01-18T18:20:45.131Z,28.02
2024-01-18T18:23:12.346Z,31.73
2024-01-18T18:25:39.515Z,34.58
2024-01-18T18:28:06.695Z,32.80
2024-01-18T18:30:36.847Z,30.35
2024-01-18T18:33:06.601Z,36.53
2024-01-18T18:35:34.016Z,35.85
2024-01-18T18:38:01.331Z,33.05
2024-01-18T18:40:30.481Z,32.53
2024-01-18T18:42:57.637Z,26.65
2024-01-18T18:45:24.740Z,32.30
2024-01-18T18:47:54.374Z,30.45
2024-01-18T18:50:21.627Z,33.58
2024-01-18T18:52:49.972Z,29.40
2024-01-18T18:55:20.069Z,31.33
2024-01-18T18:57:49.436Z,34.10
2024-01-18T19:00:16.913Z,31.02
2024-01-18T19:02:44.293Z,31.02
2024-01-18T19:05:11.981Z,26.70
2024-01-18T19:07:39.187Z,33.97
2024-01-18T19:10:06.959Z,35.72
2024-01-18T19:12:34.439Z,32.40
2024-01-18T19:15:01.539Z,27.25
2024-01-18T19:17:28.771Z,24.57
2024-01-18T19:19:55.994Z,31.77
2024-01-18T19:22:23.126Z,34.03
2024-01-18T19:24:50.344Z,32.05
2024-01-18T19:27:18.775Z,24.17
2024-01-18T19:29:46.321Z,27.73
2024-01-18T19:32:13.695Z,24.95
2024-01-18T19:34:40.934Z,27.95
2024-01-18T19:37:08.067Z,28.33
2024-01-18T19:39:40.509Z,27.70
2024-01-18T19:42:08.068Z,26.83
2024-01-18T19:44:35.439Z,31.27
2024-01-18T19:47:03.443Z,30.42
2024-01-18T19:49:30.608Z,30.77
2024-01-18T19:51:58.849Z,28.58
2024-01-18T19:54:26.031Z,28.43
2024-01-18T19:56:53.516Z,31.10
2024-01-18T19:59:20.774Z,30.98
2024-01-18T20:01:48.745Z,24.75
2024-01-18T20:04:16.001Z,24.17
2024-01-18T20:06:43.358Z,29.17
2024-01-18T20:09:10.935Z,31.77
2024-01-18T20:11:39.173Z,31.42
2024-01-18T20:14:06.439Z,33.28
2024-01-18T20:16:33.739Z,24.42
2024-01-18T20:19:00.954Z,34.03
2024-01-18T20:21:28.140Z,27.70
2024-01-18T20:23:55.637Z,26.70
2024-01-18T20:26:22.935Z,25.98
2024-01-18T20:28:51.405Z,29.00
2024-01-18T20:31:19.050Z,36.63
2024-01-18T20:33:46.982Z,29.65
2024-01-18T20:36:15.149Z,30.05
2024-01-18T20:38:43.231Z,29.35
2024-01-18T20:41:11.439Z,32.60
2024-01-18T20:43:38.687Z,26.97
2024-01-18T20:46:05.809Z,33.13
2024-01-18T20:48:32.996Z,30.05
2024-01-18T20:51:00.305Z,23.77
2024-01-18T20:53:28.160Z,26.48
2024-01-18T20:55:55.318Z,28.90
2024-01-18T20:58:22.800Z,31.30
2024-01-18T21:00:50.032Z,37.42
2024-01-18T21:03:17.208Z,31.98
2024-01-18T21:05:44.476Z,28.48
2024-01-18T21:08:11.699Z,26.63
2024-01-18T21:10:38.835Z,28.88
2024-01-18T21:13:06.009Z,31.77
2024-01-18T21:15:33.230Z,31.85
2024-01-18T21:18:00.426Z,29.42
2024-01-18T21:20:27.676Z,28.57
2024-01-18T21:22:54.947Z,26.85
2024-01-18T21:25:22.199Z,27.05
2024-01-18T21:27:49.440Z,22.92
2024-01-18T21:30:16.658Z,26.02
2024-01-18T21:32:44.203Z,29.90
2024-01-18T21:35:11.405Z,28.27
2024-01-18T21:37:38.649Z,23.98
2024-01-18T21:40:06.363Z,25.95
2024-01-18T21:42:33.653Z,23.40
2024-01-18T21:45:00.972Z,24.67
2024-01-18T21:47:28.215Z,22.42
2024-01-18T21:49:55.456Z,21.45
2024-01-18T21:52:22.849Z,30.42
2024-01-18T21:54:51.454Z,25.38
2024-01-18T21:57:19.062Z,25.10
2024-01-18T21:59:46.310Z,22.80
2024-01-18T22:02:13.848Z,20.08
2024-01-18T22:04:41.405Z,25.02
2024-01-18T22:07:09.466Z,17.55
2024-01-18T22:09:41.971Z,25.60
2024-01-18T22:12:11.804Z,22.08
2024-01-18T22:14:39.603Z,22.05
2024-01-18T22:17:07.124Z,25.27
2024-01-18T22:19:43.565Z,20.95
2024-01-18T22:22:19.121Z,22.20
2024-01-18T22:24:46.594Z,22.48
2024-01-18T22:27:13.721Z,27.38
2024-01-18T22:29:43.326Z,29.17
2024-01-18T22:32:16.235Z,25.88
2024-01-18T22:34:43.462Z,18.03
2024-01-18T22:37:10.542Z,28.50
2024-01-18T22:39:37.663Z,19.75
2024-01-18T22:42:04.815Z,24.10
2024-01-18T22:44:32.102Z,23.25
2024-01-18T22:46:59.237Z,22.30
2024-01-18T22:49:26.975Z,26.27
2024-01-18T22:51:54.261Z,26.30
2024-01-18T22:54:21.412Z,22.45
2024-01-18T22:56:48.644Z,23.45
2024-01-18T22:59:15.740Z,23.43
2024-01-18T23:01:43.625Z,20.83
2024-01-18T23:04:14.904Z,23.48
2024-01-18T23:06:42.948Z,21.60
2024-01-18T23:09:11.649Z,21.13
2024-01-18T23:11:38.892Z,20.40
2024-01-18T23:14:06.002Z,25.70
2024-01-18T23:16:33.254Z,24.10
2024-01-18T23:19:00.379Z,21.77
2024-01-18T23:21:27.539Z,23.00
2024-01-18T23:23:54.737Z,20.90
2024-01-18T23:26:21.907Z,24.40
2024-01-18T23:28:49.220Z,23.58
2024-01-18T23:31:16.543Z,22.95
2024-01-18T23:33:43.753Z,22.70
2024-01-18T23:36:11.938Z,21.20
2024-01-18T23:38:39.567Z,21.80
2024-01-18T23:41:06.781Z,17.88
2024-01-18T23:43:33.876Z,17.20
2024-01-18T23:46:02.178Z,14.85
2024-01-18T23:48:29.299Z,13.63
2024-01-18T23:50:56.403Z,17.27
2024-01-18T23:53:23.588Z,13.57
2024-01-18T23:55:50.710Z,16.83
2024-01-18T23:58:17.800Z,15.07
